Time;durP1;ratioP1;P1;durP2;ratioP2;P2;SDS_P1;SDS_P2;PMS_P1;PMS_P2;Temp;Humidity;BMP_temperature;BMP_pressure;BME280_temperature;BME280_humidity;BME280_pressure;Samples;Min_cycle;Max_cycle;Signal;HPM_P1;HPM_P2
2023/12/24 00:05:11;;;;;;;6.33;3.20;;;10.50;99.90;;;;;;10059355;28;20365;-63
2023/12/24 00:10:16;;;;;;;7.87;2.60;;;10.50;99.90;;;;;;10053632;28;20220;-64
2023/12/24 00:15:25;;;;;;;5.50;3.30;;;10.50;99.90;;;;;;10051363;28;20256;-61
2023/12/24 00:20:46;;;;;;;7.70;2.90;;;10.50;99.90;;;;;;10050705;28;20240;-62
2023/12/24 00:25:50;;;;;;;6.37;2.93;;;10.50;99.90;;;;;;10041821;28;20270;-64
2023/12/24 00:30:56;;;;;;;4.57;2.50;;;10.50;99.90;;;;;;10032036;28;20279;-63
2023/12/24 00:36:02;;;;;;;6.37;2.60;;;10.50;99.90;;;;;;10043597;28;20259;-65
2023/12/24 00:41:06;;;;;;;7.47;2.80;;;10.50;99.90;;;;;;10056112;28;20256;-67
2023/12/24 00:46:20;;;;;;;4.70;2.30;;;10.60;99.90;;;;;;10094529;23;20287;-64
2023/12/24 00:51:25;;;;;;;5.83;2.03;;;10.60;99.90;;;;;;10106259;28;20221;-60
2023/12/24 00:56:29;;;;;;;5.03;2.10;;;10.60;99.90;;;;;;10058458;28;20275;-61
2023/12/24 01:01:34;;;;;;;5.73;1.90;;;10.60;99.90;;;;;;10052665;28;20217;-67
2023/12/24 01:12:19;;;;;;;6.53;2.10;;;10.70;99.90;;;;;;10057995;28;20370;-67
2023/12/24 01:17:25;;;;;;;4.87;2.13;;;10.70;99.90;;;;;;10032966;28;20225;-65
2023/12/24 01:22:31;;;;;;;5.93;1.97;;;10.70;99.90;;;;;;10019289;28;21351;-66
2023/12/24 01:27:38;;;;;;;4.43;1.90;;;10.80;99.90;;;;;;10028594;28;20229;-67
2023/12/24 01:32:56;;;;;;;5.20;2.07;;;10.70;99.90;;;;;;10033068;28;20303;-67
2023/12/24 01:38:01;;;;;;;4.03;1.87;;;10.80;99.90;;;;;;10035716;28;20285;-65
2023/12/24 01:43:28;;;;;;;8.83;1.97;;;10.80;99.90;;;;;;10010407;28;20668;-68
2023/12/24 01:48:48;;;;;;;4.57;1.97;;;10.80;99.90;;;;;;9998301;28;20295;-68
2023/12/24 01:54:01;;;;;;;7.30;2.70;;;10.80;99.90;;;;;;10020547;28;20636;-67
2023/12/24 01:59:10;;;;;;;6.60;2.22;;;10.80;99.90;;;;;;9988781;28;20343;-65
2023/12/24 02:04:17;;;;;;;6.93;2.37;;;10.80;99.90;;;;;;10007359;28;20244;-68
2023/12/24 02:09:28;;;;;;;5.22;4.00;;;10.80;99.90;;;;;;10009627;28;20483;-67
2023/12/24 02:14:33;;;;;;;5.20;2.70;;;10.80;99.90;;;;;;10011974;28;20252;-66
2023/12/24 02:19:40;;;;;;;6.63;2.37;;;10.90;99.90;;;;;;10003550;28;20251;-66
2023/12/24 02:24:47;;;;;;;4.93;2.57;;;10.90;99.90;;;;;;9992257;28;20723;-67
2023/12/24 02:29:55;;;;;;;6.33;2.70;;;10.80;99.90;;;;;;9997030;28;20756;-67
2023/12/24 02:35:04;;;;;;;4.27;1.60;;;10.80;99.90;;;;;;10013374;28;20765;-66
2023/12/24 02:40:11;;;;;;;5.30;1.70;;;10.80;99.90;;;;;;9998061;28;20245;-69
2023/12/24 02:45:25;;;;;;;1.93;1.30;;;10.90;99.90;;;;;;10057754;28;20413;-63
2023/12/24 02:50:33;;;;;;;4.32;1.40;;;10.80;99.90;;;;;;10011854;28;20224;-63
2023/12/24 02:55:41;;;;;;;4.47;1.40;;;10.80;99.90;;;;;;9955867;28;20248;-61
2023/12/24 03:00:46;;;;;;;5.67;1.40;;;10.90;99.90;;;;;;10011157;28;20256;-60
2023/12/24 03:05:55;;;;;;;4.97;1.43;;;10.80;99.90;;;;;;10021554;28;20303;-63
2023/12/24 03:11:07;;;;;;;3.70;1.30;;;10.70;99.90;;;;;;10024262;28;20613;-67
2023/12/24 03:16:11;;;;;;;6.13;1.37;;;10.70;99.90;;;;;;10034273;28;20247;-66
2023/12/24 03:21:16;;;;;;;5.60;1.40;;;10.60;99.90;;;;;;10042403;28;20313;-66
2023/12/24 03:26:29;;;;;;;8.77;2.03;;;10.60;99.90;;;;;;10003624;28;20734;-65
2023/12/24 03:31:36;;;;;;;4.70;1.40;;;10.50;99.90;;;;;;10000892;28;20221;-65
2023/12/24 03:36:40;;;;;;;3.53;1.47;;;10.50;99.90;;;;;;9939259;28;20920;-65
2023/12/24 03:41:49;;;;;;;7.63;2.17;;;10.40;99.90;;;;;;9987406;28;20744;-67
2023/12/24 03:46:54;;;;;;;1.73;1.00;;;10.40;99.90;;;;;;10018368;28;20240;-68
2023/12/24 03:52:04;;;;;;;3.45;1.40;;;10.40;99.90;;;;;;10005145;28;20684;-67
2023/12/24 03:57:10;;;;;;;3.67;1.42;;;10.40;99.90;;;;;;10017751;28;20356;-65
2023/12/24 04:02:15;;;;;;;1.45;0.90;;;10.40;99.90;;;;;;10010425;28;20293;-65
2023/12/24 04:07:39;;;;;;;4.77;1.50;;;10.40;99.90;;;;;;10006553;28;20232;-65
2023/12/24 04:12:48;;;;;;;2.63;1.60;;;10.40;99.90;;;;;;10014291;28;20739;-64
2023/12/24 04:17:53;;;;;;;2.10;1.47;;;10.40;99.90;;;;;;10014394;28;20289;-63
2023/12/24 04:23:02;;;;;;;2.07;1.17;;;10.40;99.90;;;;;;10008680;28;20775;-65
2023/12/24 04:28:08;;;;;;;3.53;1.40;;;10.40;99.90;;;;;;10012674;28;23090;-64
2023/12/24 04:33:14;;;;;;;1.63;0.70;;;10.50;99.90;;;;;;10000419;28;20458;-64
2023/12/24 04:38:18;;;;;;;1.17;0.77;;;10.50;99.90;;;;;;10035616;28;20216;-66
2023/12/24 04:43:49;;;;;;;3.27;1.00;;;10.50;99.90;;;;;;9992560;28;20739;-66
2023/12/24 04:49:05;;;;;;;4.33;1.23;;;10.50;99.90;;;;;;10016719;28;20729;-69
2023/12/24 04:54:17;;;;;;;0.57;0.30;;;10.60;99.90;;;;;;9995714;28;20667;-66
2023/12/24 04:59:27;;;;;;;3.13;0.77;;;10.50;99.90;;;;;;9974428;28;20668;-67
2023/12/24 05:04:35;;;;;;;7.53;1.67;;;10.50;99.90;;;;;;10036273;28;20260;-68
2023/12/24 05:10:09;;;;;;;0.43;0.20;;;10.50;99.90;;;;;;10035247;28;20606;-68
2023/12/24 05:15:18;;;;;;;1.03;0.30;;;10.60;99.90;;;;;;9999569;28;20228;-66
2023/12/24 05:20:23;;;;;;;0.30;0.30;;;10.50;99.90;;;;;;10049356;28;20228;-67
2023/12/24 05:25:27;;;;;;;0.57;0.40;;;10.60;99.90;;;;;;10055032;28;20228;-67
2023/12/24 05:30:33;;;;;;;0.60;0.43;;;10.60;99.90;;;;;;10043664;28;20286;-67
2023/12/24 05:35:38;;;;;;;2.17;0.77;;;10.60;99.90;;;;;;10022531;28;20260;-68
2023/12/24 05:40:42;;;;;;;2.23;0.50;;;10.60;99.90;;;;;;10002280;28;20303;-68
2023/12/24 05:45:48;;;;;;;1.80;0.50;;;10.60;99.90;;;;;;10021211;28;20326;-66
2023/12/24 05:50:53;;;;;;;0.57;0.40;;;10.60;99.90;;;;;;10026281;28;20197;-66
2023/12/24 05:56:18;;;;;;;4.83;1.40;;;10.60;99.90;;;;;;10034082;28;20244;-65
2023/12/24 06:01:24;;;;;;;6.03;1.77;;;10.60;99.90;;;;;;9987578;28;20971;-65
2023/12/24 06:06:29;;;;;;;1.90;0.70;;;10.60;99.90;;;;;;9983167;28;21050;-65
2023/12/24 06:11:33;;;;;;;4.70;1.70;;;10.60;99.90;;;;;;9995024;28;20224;-67
2023/12/24 06:16:39;;;;;;;1.67;1.03;;;10.60;99.90;;;;;;9972949;28;20841;-66
2023/12/24 06:21:44;;;;;;;0.60;0.60;;;10.60;99.90;;;;;;9970375;28;20307;-68
2023/12/24 06:26:49;;;;;;;0.67;0.67;;;10.60;99.90;;;;;;9982942;28;20736;-62
2023/12/24 06:31:57;;;;;;;0.70;0.70;;;10.60;99.90;;;;;;9979837;28;20671;-59
2023/12/24 06:37:50;;;;;;;0.70;0.67;;;10.60;99.90;;;;;;9995277;28;20742;-60
2023/12/24 06:42:56;;;;;;;2.73;0.60;;;10.60;99.90;;;;;;9997594;28;20383;-60
2023/12/24 06:48:05;;;;;;;1.80;0.80;;;10.60;99.90;;;;;;10000107;28;20297;-60
2023/12/24 06:53:09;;;;;;;7.40;1.97;;;10.70;99.90;;;;;;9984043;28;20240;-59
2023/12/24 06:58:15;;;;;;;1.43;1.00;;;10.70;99.90;;;;;;10012384;28;20201;-59
2023/12/24 07:03:22;;;;;;;1.37;1.20;;;10.70;99.90;;;;;;10010311;28;20748;-65
2023/12/24 07:08:26;;;;;;;1.47;1.10;;;10.70;99.90;;;;;;10052727;28;20259;-68
2023/12/24 07:13:37;;;;;;;6.53;1.75;;;10.70;99.90;;;;;;10118337;28;20279;-65
2023/12/24 07:18:44;;;;;;;1.53;0.70;;;10.70;99.90;;;;;;10020331;28;20255;-67
2023/12/24 07:23:56;;;;;;;1.65;1.10;;;10.70;99.90;;;;;;10047009;28;20988;-66
2023/12/24 07:29:05;;;;;;;1.85;1.17;;;10.90;99.90;;;;;;10148749;28;20789;-65
2023/12/24 07:34:16;;;;;;;0.80;0.80;;;10.90;99.90;;;;;;9995805;28;20286;-65
2023/12/24 07:39:26;;;;;;;6.90;2.27;;;10.90;99.90;;;;;;10016458;28;20346;-67
2023/12/24 07:44:30;;;;;;;1.63;1.00;;;10.90;99.90;;;;;;10030130;28;20279;-67
2023/12/24 07:49:36;;;;;;;3.85;1.65;;;10.90;99.90;;;;;;9996156;28;20286;-63
2023/12/24 07:54:42;;;;;;;1.42;1.27;;;10.90;99.90;;;;;;10059312;28;21115;-58
2023/12/24 07:59:46;;;;;;;1.15;1.05;;;10.90;99.90;;;;;;10011150;28;20224;-60
2023/12/24 08:04:54;;;;;;;2.03;1.60;;;10.80;99.90;;;;;;10085002;28;20311;-66
2023/12/24 08:09:58;;;;;;;1.00;0.90;;;10.90;99.90;;;;;;10045477;28;20688;-67
2023/12/24 08:15:02;;;;;;;1.10;1.00;;;10.90;99.90;;;;;;10056655;28;20504;-65
2023/12/24 08:20:12;;;;;;;2.00;1.50;;;10.90;99.90;;;;;;10035487;28;20237;-66
2023/12/24 08:25:19;;;;;;;1.58;1.38;;;10.90;99.90;;;;;;10034077;28;20361;-64
2023/12/24 08:30:23;;;;;;;1.20;1.10;;;11.00;99.90;;;;;;10075190;28;20666;-59
2023/12/24 08:35:29;;;;;;;1.80;1.03;;;11.00;99.90;;;;;;10078488;28;20252;-62
2023/12/24 08:40:38;;;;;;;1.10;1.10;;;11.00;99.90;;;;;;10060121;28;20750;-70
2023/12/24 08:45:47;;;;;;;2.22;1.45;;;11.00;99.90;;;;;;10065485;28;20263;-66
2023/12/24 08:50:56;;;;;;;2.28;1.23;;;11.00;99.90;;;;;;9987773;28;20748;-65
2023/12/24 08:56:03;;;;;;;1.87;1.23;;;11.00;99.90;;;;;;10013400;28;20291;-67
2023/12/24 09:01:17;;;;;;;6.10;1.80;;;11.00;99.90;;;;;;10016153;28;20506;-61
2023/12/24 09:06:31;;;;;;;0.88;0.88;;;11.00;99.90;;;;;;10050843;28;20310;-62
2023/12/24 09:17:15;;;;;;;2.00;1.03;;;11.00;99.90;;;;;;10075423;28;20255;-65
2023/12/24 09:22:25;;;;;;;0.80;0.80;;;11.00;99.90;;;;;;9855545;28;20756;-63
2023/12/24 09:27:29;;;;;;;1.10;1.00;;;11.10;99.90;;;;;;9871410;29;20231;-66
2023/12/24 09:32:33;;;;;;;2.08;1.05;;;11.10;99.90;;;;;;9850605;29;20833;-66
2023/12/24 09:37:38;;;;;;;1.20;1.05;;;11.10;99.90;;;;;;9986706;28;20213;-62
2023/12/24 09:42:50;;;;;;;1.02;0.82;;;11.10;99.90;;;;;;10231107;28;20228;-64
2023/12/24 09:48:16;;;;;;;2.47;2.00;;;11.20;99.90;;;;;;10290361;28;20255;-67
2023/12/24 09:53:45;;;;;;;1.98;1.10;;;11.20;99.90;;;;;;10238971;28;20371;-65
2023/12/24 10:04:23;;;;;;;2.17;0.93;;;11.20;99.90;;;;;;10902314;23;20890;-65
2023/12/24 10:09:45;;;;;;;1.85;1.50;;;11.20;99.90;;;;;;9919582;28;20206;-63
2023/12/24 10:14:56;;;;;;;1.97;1.80;;;11.20;99.90;;;;;;9997199;28;20198;-64
2023/12/24 10:20:02;;;;;;;1.95;1.85;;;11.20;99.90;;;;;;10006513;28;20361;-65
2023/12/24 10:25:20;;;;;;;2.30;2.10;;;11.20;99.90;;;;;;9972766;28;20223;-62
2023/12/24 10:30:29;;;;;;;2.97;2.63;;;11.30;99.90;;;;;;9941679;28;20373;-58
2023/12/24 10:35:35;;;;;;;2.08;1.50;;;11.30;99.90;;;;;;9895080;28;20803;-63
2023/12/24 10:40:42;;;;;;;2.10;1.90;;;11.30;99.90;;;;;;9884270;28;20269;-61
2023/12/24 10:45:47;;;;;;;1.40;1.17;;;11.30;99.90;;;;;;9906337;28;21050;-61
2023/12/24 10:56:04;;;;;;;1.40;1.30;;;11.40;99.90;;;;;;10222770;27;1658650;-61
2023/12/24 11:01:29;;;;;;;4.15;1.60;;;11.40;99.90;;;;;;10181466;28;20318;-59
2023/12/24 11:06:53;;;;;;;0.75;0.75;;;11.40;99.90;;;;;;10223946;28;20304;-64
2023/12/24 11:13:09;;;;;;;1.42;0.80;;;11.40;99.90;;;;;;10340446;28;20808;-62
2023/12/24 11:18:58;;;;;;;3.97;1.70;;;11.50;99.90;;;;;;10308991;28;20491;-59
2023/12/24 11:24:25;;;;;;;3.47;1.55;;;11.50;99.90;;;;;;10136623;28;20626;-61
2023/12/24 11:29:55;;;;;;;2.92;1.70;;;11.50;99.90;;;;;;10144050;28;20222;-71
2023/12/24 11:35:52;;;;;;;1.52;1.30;;;11.60;99.90;;;;;;10243244;28;20309;-69
2023/12/24 11:41:17;;;;;;;2.95;1.67;;;11.60;99.90;;;;;;10210476;28;20242;-71
2023/12/24 11:46:46;;;;;;;2.17;1.95;;;11.60;99.90;;;;;;10144690;28;20214;-61
2023/12/24 11:52:09;;;;;;;2.40;1.80;;;11.60;99.90;;;;;;10170095;28;20847;-59
2023/12/24 11:57:48;;;;;;;4.05;2.30;;;11.60;99.90;;;;;;10140380;28;20697;-61
2023/12/24 12:03:39;;;;;;;4.97;2.88;;;11.60;99.90;;;;;;10251900;28;20236;-66
2023/12/24 12:09:19;;;;;;;3.00;2.67;;;11.60;99.90;;;;;;10120750;28;20290;-69
2023/12/24 12:14:47;;;;;;;3.83;3.13;;;11.70;99.90;;;;;;10412264;28;20581;-66
2023/12/24 12:20:14;;;;;;;3.60;3.13;;;11.70;99.90;;;;;;10381707;28;21052;-71
2023/12/24 12:25:41;;;;;;;5.43;3.83;;;11.70;99.90;;;;;;10202125;28;20555;-63
2023/12/24 12:31:34;;;;;;;4.53;3.15;;;11.70;99.90;;;;;;9997797;28;20641;-62
2023/12/24 12:44:00;;;;;;;4.90;3.75;;;11.70;99.90;;;;;;10186222;28;20723;-67
2023/12/24 12:49:28;;;;;;;3.70;2.25;;;11.70;99.90;;;;;;10049810;28;20771;-68
2023/12/24 12:55:03;;;;;;;3.15;1.98;;;11.80;99.90;;;;;;10074900;28;20413;-63
2023/12/24 13:00:36;;;;;;;2.60;1.92;;;11.80;99.90;;;;;;10105251;28;20254;-63
2023/12/24 13:06:28;;;;;;;4.85;1.50;;;11.80;99.90;;;;;;10102214;28;20192;-61
2023/12/24 13:12:07;;;;;;;4.03;1.65;;;11.80;99.90;;;;;;10069980;28;20306;-63
2023/12/24 13:17:31;;;;;;;8.45;2.75;;;11.80;99.90;;;;;;10063175;28;20279;-64
2023/12/24 13:22:56;;;;;;;5.05;1.35;;;11.80;99.90;;;;;;10059433;28;20230;-63
2023/12/24 13:28:24;;;;;;;1.85;1.23;;;11.80;99.90;;;;;;10056880;28;22044;-63
2023/12/24 13:33:57;;;;;;;1.20;0.90;;;11.90;99.90;;;;;;10051932;28;20990;-64
2023/12/24 13:39:30;;;;;;;1.67;0.70;;;11.80;99.90;;;;;;10041028;28;21190;-62
2023/12/24 13:44:54;;;;;;;0.93;0.70;;;11.90;99.90;;;;;;10172124;28;20456;-64
2023/12/24 13:50:18;;;;;;;2.88;1.20;;;11.90;99.90;;;;;;10167515;28;20239;-65
2023/12/24 13:55:42;;;;;;;4.78;1.65;;;11.90;99.90;;;;;;10151122;28;20294;-66
2023/12/24 14:01:27;;;;;;;2.47;0.80;;;11.90;99.90;;;;;;10174745;28;21371;-64
2023/12/24 14:06:51;;;;;;;1.30;1.13;;;11.90;99.90;;;;;;10202343;28;20890;-63
2023/12/24 14:12:49;;;;;;;1.40;1.30;;;12.00;99.90;;;;;;10195564;28;20507;-64
2023/12/24 14:18:54;;;;;;;2.03;1.65;;;12.00;99.90;;;;;;10087252;28;21264;-62
2023/12/24 14:24:40;;;;;;;3.47;2.17;;;12.00;99.90;;;;;;10110380;28;20373;-65
2023/12/24 14:35:54;;;;;;;2.58;2.28;;;12.10;99.90;;;;;;10124106;28;20505;-62
2023/12/24 14:41:18;;;;;;;3.20;2.28;;;12.10;99.90;;;;;;10030862;28;20721;-62
2023/12/24 14:46:45;;;;;;;3.03;2.13;;;12.10;99.90;;;;;;10029987;28;21056;-62
2023/12/24 14:52:11;;;;;;;3.88;2.50;;;12.20;99.90;;;;;;10023459;28;20216;-61
2023/12/24 14:57:35;;;;;;;3.05;2.28;;;12.20;99.90;;;;;;10020207;28;20721;-64
2023/12/24 15:02:59;;;;;;;3.78;2.20;;;12.20;99.90;;;;;;10057036;28;20723;-64
2023/12/24 15:08:28;;;;;;;3.50;2.90;;;12.20;99.90;;;;;;10048176;28;20395;-63
2023/12/24 15:13:53;;;;;;;3.38;3.08;;;12.20;99.90;;;;;;10034657;28;20866;-64
2023/12/24 15:19:43;;;;;;;4.55;4.10;;;12.20;99.90;;;;;;10045028;28;20281;-62
2023/12/24 15:25:11;;;;;;;5.10;4.60;;;12.30;99.90;;;;;;10013067;28;20235;-63
2023/12/24 15:30:36;;;;;;;5.78;5.20;;;12.30;99.90;;;;;;10028653;28;20239;-65
2023/12/24 15:36:10;;;;;;;7.13;5.18;;;12.40;99.90;;;;;;10027065;28;20243;-64
2023/12/24 15:41:36;;;;;;;4.90;4.50;;;12.40;99.90;;;;;;10006751;28;20248;-62
2023/12/24 15:47:00;;;;;;;5.22;4.72;;;12.40;99.90;;;;;;10011525;28;21048;-64
2023/12/24 15:52:24;;;;;;;5.18;4.78;;;12.40;99.90;;;;;;10019780;28;20395;-66
2023/12/24 15:58:10;;;;;;;5.20;4.32;;;12.50;99.90;;;;;;10054508;28;20850;-64
2023/12/24 16:03:37;;;;;;;5.30;4.80;;;12.50;99.90;;;;;;10032917;28;20731;-62
2023/12/24 16:09:27;;;;;;;5.93;5.05;;;12.50;99.90;;;;;;10052253;28;20951;-62
2023/12/24 16:14:53;;;;;;;6.90;4.63;;;12.50;99.90;;;;;;10013018;28;20592;-62
2023/12/24 16:20:26;;;;;;;11.75;7.40;;;12.50;99.90;;;;;;10031951;28;20737;-61
2023/12/24 16:25:49;;;;;;;6.32;4.68;;;12.60;99.90;;;;;;10022593;28;20661;-61
2023/12/24 16:37:52;;;;;;;5.28;3.13;;;12.60;99.90;;;;;;10060152;28;20455;-65
2023/12/24 16:43:18;;;;;;;14.32;5.05;;;12.60;99.90;;;;;;10078455;28;20628;-67
2023/12/24 16:48:44;;;;;;;3.22;2.63;;;12.50;99.90;;;;;;10047327;28;20457;-68
2023/12/24 16:54:19;;;;;;;8.93;3.47;;;12.50;99.90;;;;;;10033138;28;21196;-63
2023/12/24 16:59:58;;;;;;;4.47;2.60;;;12.50;99.90;;;;;;10230376;28;20639;-65
2023/12/24 17:05:25;;;;;;;3.83;2.97;;;12.50;99.90;;;;;;10224823;28;20279;-66
2023/12/24 17:10:53;;;;;;;4.85;2.90;;;12.50;99.90;;;;;;10084730;28;21014;-67
2023/12/24 17:16:23;;;;;;;16.17;5.25;;;12.50;99.90;;;;;;10102683;28;20680;-61
2023/12/24 17:21:53;;;;;;;3.70;2.97;;;12.50;99.90;;;;;;10085118;28;20629;-60
2023/12/24 17:27:22;;;;;;;4.80;2.88;;;12.50;99.90;;;;;;10135251;28;20212;-59
2023/12/24 17:32:47;;;;;;;3.78;3.10;;;12.50;99.90;;;;;;10141065;28;20220;-57
2023/12/24 17:38:12;;;;;;;8.40;3.60;;;12.50;99.90;;;;;;10130534;28;20421;-58
2023/12/24 17:43:36;;;;;;;7.07;4.05;;;12.50;99.90;;;;;;10131834;28;20511;-64
2023/12/24 17:49:08;;;;;;;4.15;3.13;;;12.50;99.90;;;;;;10150120;28;20231;-58
2023/12/24 17:54:41;;;;;;;5.57;3.08;;;12.60;99.90;;;;;;10067019;28;20551;-60
2023/12/24 18:00:10;;;;;;;15.77;5.60;;;12.50;99.90;;;;;;10064715;28;20208;-58
2023/12/24 18:05:39;;;;;;;4.90;2.88;;;12.60;99.90;;;;;;10168594;28;20236;-60
2023/12/24 18:11:10;;;;;;;5.43;3.28;;;12.60;99.90;;;;;;10084925;28;21060;-58
2023/12/24 18:16:37;;;;;;;7.38;3.78;;;12.60;99.90;;;;;;10058420;28;20842;-60
2023/12/24 18:22:00;;;;;;;4.28;2.38;;;12.60;99.90;;;;;;10097914;28;20211;-59
2023/12/24 18:27:25;;;;;;;5.10;2.33;;;12.60;99.90;;;;;;10122304;28;20215;-59
2023/12/24 18:32:54;;;;;;;5.65;2.67;;;12.60;99.90;;;;;;10074541;28;21237;-58
2023/12/24 18:38:18;;;;;;;5.57;3.10;;;12.60;99.90;;;;;;10054068;28;20601;-58
2023/12/24 18:43:41;;;;;;;4.97;2.95;;;12.60;99.90;;;;;;10115680;28;20244;-58
2023/12/24 18:49:11;;;;;;;5.70;3.28;;;12.60;99.90;;;;;;10063153;28;20469;-58
2023/12/24 18:54:39;;;;;;;7.70;3.67;;;12.70;99.90;;;;;;10067634;28;20739;-60
2023/12/24 19:00:05;;;;;;;5.03;4.10;;;12.70;99.90;;;;;;10086480;28;20524;-58
2023/12/24 19:05:29;;;;;;;11.40;4.03;;;12.70;99.90;;;;;;10075927;28;21170;-58
2023/12/24 19:11:04;;;;;;;5.68;3.72;;;12.70;99.90;;;;;;10092090;28;20219;-58
2023/12/24 19:16:31;;;;;;;12.18;5.13;;;12.70;99.90;;;;;;10141123;28;20912;-57
2023/12/24 19:21:59;;;;;;;9.48;4.55;;;12.70;99.90;;;;;;10136671;28;20400;-55
2023/12/24 19:27:25;;;;;;;13.15;4.65;;;12.60;99.90;;;;;;10211581;28;20729;-56
